createdAt,value
2016-02-11T00:00:10.459Z,0
2016-02-11T00:01:10.352Z,0
2016-02-11T00:02:10.339Z,0
2016-02-11T00:03:10.326Z,0
2016-02-11T00:04:10.313Z,0
2016-02-11T00:05:10.316Z,0
2016-02-11T00:06:10.335Z,0
2016-02-11T00:07:10.369Z,0
2016-02-11T00:08:10.309Z,0
2016-02-11T00:09:10.327Z,0
2016-02-11T00:10:10.299Z,0
2016-02-11T00:11:10.349Z,0
2016-02-11T00:12:10.304Z,0
2016-02-11T00:13:10.307Z,0
2016-02-11T00:14:10.328Z,0
2016-02-11T00:15:10.330Z,0
2016-02-11T00:16:10.333Z,0
2016-02-11T00:17:09.555Z,0
2016-02-11T00:18:10.308Z,0
2016-02-11T00:19:10.295Z,0
2016-02-11T00:20:10.282Z,0
2016-02-11T00:21:10.301Z,0
2016-02-11T00:22:10.257Z,0
2016-02-11T00:23:10.291Z,0
2016-02-11T00:24:10.247Z,0
2016-02-11T00:25:10.282Z,0
2016-02-11T00:26:10.239Z,0
2016-02-11T00:27:10.273Z,0
2016-02-11T00:28:10.260Z,0
2016-02-11T00:29:10.231Z,0
2016-02-11T00:30:10.133Z,0
2016-02-11T00:31:09.927Z,0
2016-02-11T00:32:10.244Z,0
2016-02-11T00:33:10.272Z,0
2016-02-11T00:34:10.275Z,0
2016-02-11T00:35:10.267Z,0
2016-02-11T00:36:10.217Z,0
2016-02-11T00:37:10.219Z,0
2016-02-11T00:38:10.206Z,0
2016-02-11T00:39:10.209Z,0
2016-02-11T00:40:10.212Z,0
2016-02-11T00:41:10.184Z,0
2016-02-11T00:42:10.218Z,0
2016-02-11T00:43:10.191Z,0
2016-02-11T00:44:10.177Z,0
2016-02-11T00:45:10.227Z,0
2016-02-11T00:46:10.198Z,0
2016-02-11T00:47:10.186Z,0
2016-02-11T00:48:10.173Z,0
2016-02-11T00:49:10.207Z,0
2016-02-11T00:50:10.147Z,0
2016-02-11T00:51:10.183Z,0
2016-02-11T00:52:10.170Z,0
2016-02-11T00:53:10.142Z,0
2016-02-11T00:54:10.159Z,0
2016-02-11T00:55:10.163Z,0
2016-02-11T00:56:10.244Z,0
2016-02-11T00:57:10.121Z,0
2016-02-11T00:58:10.218Z,0
2016-02-11T00:59:10.128Z,0
2016-02-11T01:00:10.131Z,0
2016-02-11T01:01:10.134Z,0
2016-02-11T01:02:10.136Z,0
2016-02-11T01:03:10.124Z,0
2016-02-11T01:04:10.141Z,0
2016-02-11T01:05:10.101Z,0
2016-02-11T01:06:10.136Z,0
2016-02-11T01:07:10.091Z,0
2016-02-11T01:08:10.079Z,0
2016-02-11T01:09:10.082Z,0
2016-02-11T01:10:10.068Z,0
2016-02-11T01:11:10.071Z,0
2016-02-11T01:12:10.074Z,0
2016-02-11T01:13:10.108Z,0
2016-02-11T01:14:10.064Z,0
2016-02-11T01:15:10.067Z,0
2016-02-11T01:16:10.070Z,0
2016-02-11T01:17:10.057Z,0
2016-02-11T01:18:10.044Z,0
2016-02-11T01:19:10.093Z,0
2016-02-11T01:20:10.018Z,0
2016-02-11T01:21:10.099Z,0
2016-02-11T01:22:10.056Z,0
2016-02-11T01:23:10.043Z,0
2016-02-11T01:24:10.029Z,0
2016-02-11T01:25:10.049Z,0
2016-02-11T01:26:10.134Z,0
2016-02-11T01:27:09.855Z,0
2016-02-11T01:28:10.014Z,0
2016-02-11T01:29:10.000Z,0
2016-02-11T01:30:10.003Z,0
2016-02-11T01:31:10.006Z,0
2016-02-11T01:32:09.993Z,0
2016-02-11T01:33:10.000Z,0
2016-02-11T01:34:10.017Z,0
2016-02-11T01:35:09.989Z,0
2016-02-11T01:36:09.977Z,0
2016-02-11T01:37:09.996Z,0
2016-02-11T01:38:09.994Z,0
2016-02-11T01:39:09.966Z,0
2016-02-11T01:40:09.969Z,0
2016-02-11T01:41:09.987Z,0
2016-02-11T01:42:09.974Z,0
2016-02-11T01:43:09.930Z,0
2016-02-11T01:44:09.979Z,0
2016-02-11T01:45:09.936Z,0
2016-02-11T01:46:09.954Z,0
2016-02-11T01:47:09.957Z,0
2016-02-11T01:48:09.943Z,0
2016-02-11T01:49:09.977Z,0
2016-02-11T01:50:09.917Z,0
2016-02-11T01:51:09.936Z,0
2016-02-11T01:52:09.891Z,0
2016-02-11T01:53:09.926Z,0
2016-02-11T01:54:09.943Z,0
2016-02-11T01:55:09.884Z,0
2016-02-11T01:56:09.950Z,0
2016-02-11T01:57:09.891Z,0
2016-02-11T01:58:09.925Z,0
2016-02-11T01:59:09.880Z,0
2016-02-11T02:00:09.882Z,0
2016-02-11T02:01:09.871Z,0
2016-02-11T02:02:09.874Z,0
2016-02-11T02:03:09.877Z,0
2016-02-11T02:04:09.739Z,0
2016-02-11T02:05:09.882Z,0
2016-02-11T02:06:09.869Z,0
2016-02-11T02:07:09.841Z,0
2016-02-11T02:08:09.875Z,0
2016-02-11T02:09:09.861Z,0
2016-02-11T02:10:09.849Z,0
2016-02-11T02:11:09.866Z,0
2016-02-11T02:12:09.838Z,0
2016-02-11T02:13:09.887Z,0
2016-02-11T02:14:09.827Z,0
2016-02-11T02:15:09.846Z,0
2016-02-11T02:16:09.818Z,0
2016-02-11T02:17:09.821Z,0
2016-02-11T02:18:09.825Z,0
2016-02-11T02:19:09.858Z,0
2016-02-11T02:20:09.814Z,0
2016-02-11T02:21:09.832Z,0
2016-02-11T02:22:09.803Z,0
2016-02-11T02:23:09.806Z,0
2016-02-11T02:24:09.809Z,0
2016-02-11T02:25:09.859Z,0
2016-02-11T02:26:09.799Z,0
2016-02-11T02:27:09.803Z,0
2016-02-11T02:28:09.775Z,0
2016-02-11T02:29:09.778Z,0
2016-02-11T02:30:09.765Z,0
2016-02-11T02:31:09.783Z,0
2016-02-11T02:32:09.786Z,0
2016-02-11T02:33:09.757Z,0
2016-02-11T02:34:09.760Z,0
2016-02-11T02:35:09.747Z,0
2016-02-11T02:36:09.765Z,0
2016-02-11T02:37:09.767Z,0
2016-02-11T02:38:09.739Z,0
2016-02-11T02:39:09.742Z,0
2016-02-11T02:40:09.729Z,0
2016-02-11T02:41:09.763Z,0
2016-02-11T02:42:09.733Z,0
2016-02-11T02:43:09.736Z,0
2016-02-11T02:44:09.739Z,0
2016-02-11T02:45:09.711Z,0
2016-02-11T02:46:09.714Z,0
2016-02-11T02:47:09.717Z,0
2016-02-11T02:48:09.735Z,0
2016-02-11T02:49:09.707Z,0
2016-02-11T02:50:09.724Z,0
2016-02-11T02:51:09.665Z,0
2016-02-11T02:52:09.698Z,0
2016-02-11T02:53:09.685Z,0
2016-02-11T02:54:09.691Z,0
2016-02-11T02:55:09.664Z,0
2016-02-11T02:56:09.729Z,0
2016-02-11T02:57:09.669Z,0
2016-02-11T02:58:09.656Z,0
2016-02-11T02:59:09.678Z,0
2016-02-11T03:00:09.665Z,0
2016-02-11T03:01:09.684Z,0
2016-02-11T03:02:09.640Z,0
2016-02-11T03:03:09.659Z,0
2016-02-11T03:04:09.652Z,0
2016-02-11T03:05:09.670Z,0
2016-02-11T03:06:09.453Z,0
2016-02-11T03:07:09.643Z,0
2016-02-11T03:08:09.630Z,0
2016-02-11T03:09:09.601Z,0
2016-02-11T03:10:09.604Z,0
2016-02-11T03:11:09.606Z,0
2016-02-11T03:12:09.625Z,0
2016-02-11T03:13:09.644Z,0
2016-02-11T03:14:09.614Z,0
2016-02-11T03:15:09.618Z,0
2016-02-11T03:16:09.620Z,0
2016-02-11T03:17:09.624Z,0
2016-02-11T03:18:09.616Z,0
2016-02-11T03:19:09.572Z,0
2016-02-11T03:20:09.605Z,0
2016-02-11T03:21:09.562Z,0
2016-02-11T03:22:23.693Z,0
2016-02-11T03:23:09.599Z,0
2016-02-11T03:24:09.557Z,0
2016-02-11T03:25:09.576Z,0
2016-02-11T03:26:09.547Z,0
2016-02-11T03:27:09.550Z,0
2016-02-11T03:28:09.553Z,0
2016-02-11T03:29:09.541Z,0
2016-02-11T03:30:09.559Z,0
2016-02-11T03:31:09.530Z,0
2016-02-11T03:32:09.548Z,0
2016-02-11T03:33:09.535Z,0
2016-02-11T03:34:09.523Z,0
2016-02-11T03:35:09.510Z,0
2016-02-11T03:36:09.543Z,0
2016-02-11T03:37:09.532Z,0
2016-02-11T03:38:09.504Z,0
2016-02-11T03:39:09.507Z,0
2016-02-11T03:40:09.509Z,0
2016-02-11T03:41:09.511Z,0
2016-02-11T03:42:09.482Z,0
2016-02-11T03:43:09.486Z,0
2016-02-11T03:44:09.520Z,0
2016-02-11T03:45:09.491Z,0
2016-02-11T03:46:09.462Z,0
2016-02-11T03:47:09.496Z,0
2016-02-11T03:48:09.484Z,0
2016-02-11T03:49:09.455Z,0
2016-02-11T03:50:09.473Z,0
2016-02-11T03:51:09.460Z,0
2016-02-11T03:52:09.447Z,0
2016-02-11T03:53:09.450Z,0
2016-02-11T03:54:09.453Z,0
2016-02-11T03:55:09.456Z,0
2016-02-11T03:56:09.530Z,0
2016-02-11T03:57:09.439Z,0
2016-02-11T03:58:09.426Z,0
2016-02-11T03:59:09.461Z,0
2016-02-11T04:00:09.447Z,0
2016-02-11T04:01:09.435Z,0
2016-02-11T04:02:09.421Z,0
2016-02-11T04:03:09.409Z,0
2016-02-11T04:04:09.458Z,0
2016-02-11T04:05:09.414Z,0
2016-02-11T04:06:09.417Z,0
2016-02-11T04:07:09.420Z,0
2016-02-11T04:08:09.423Z,0
2016-02-11T04:09:09.443Z,0
2016-02-11T04:10:09.398Z,0
2016-02-11T04:11:09.604Z,0
2016-02-11T04:12:09.387Z,0
2016-02-11T04:13:09.375Z,0
2016-02-11T04:14:09.583Z,0
2016-02-11T04:15:09.211Z,0
2016-02-11T04:16:09.400Z,0
2016-02-11T04:17:09.357Z,0
2016-02-11T04:18:09.359Z,0
2016-02-11T04:19:09.362Z,0
2016-02-11T04:20:09.365Z,0
2016-02-11T04:21:09.352Z,0
2016-02-11T04:22:09.339Z,0
2016-02-11T04:23:09.358Z,0
2016-02-11T04:24:09.330Z,0
2016-02-11T04:25:09.425Z,0
2016-02-11T04:26:09.335Z,0
2016-02-11T04:27:09.343Z,0
2016-02-11T04:28:09.345Z,0
2016-02-11T04:29:09.332Z,0
2016-02-11T04:30:09.304Z,0
2016-02-11T04:31:09.321Z,0
2016-02-11T04:32:09.309Z,0
2016-02-11T04:33:09.312Z,0
2016-02-11T04:34:09.282Z,0
2016-02-11T04:35:09.286Z,0
2016-02-11T04:36:09.445Z,0
2016-02-11T04:37:09.276Z,0
2016-02-11T04:38:09.293Z,0
2016-02-11T04:39:09.282Z,0
2016-02-11T04:40:09.270Z,0
2016-02-11T04:41:09.273Z,0
2016-02-11T04:42:09.275Z,0
2016-02-11T04:43:09.247Z,0
2016-02-11T04:44:09.265Z,0
2016-02-11T04:45:09.252Z,0
2016-02-11T04:46:09.286Z,0
2016-02-11T04:47:09.242Z,0
2016-02-11T04:48:09.246Z,0
2016-02-11T04:49:09.249Z,0
2016-02-11T04:50:09.221Z,0
2016-02-11T04:51:09.239Z,0
2016-02-11T04:52:09.210Z,0
2016-02-11T04:53:09.244Z,0
2016-02-11T04:54:09.106Z,0
2016-02-11T04:55:09.234Z,0
2016-02-11T04:56:09.363Z,0
2016-02-11T04:57:09.209Z,0
2016-02-11T04:58:09.200Z,0
2016-02-11T04:59:09.188Z,0
2016-02-11T05:00:09.191Z,0
2016-02-11T05:01:09.226Z,0
2016-02-11T05:02:09.197Z,0
2016-02-11T05:03:09.184Z,0
2016-02-11T05:04:09.030Z,0
2016-02-11T05:05:09.190Z,0
2016-02-11T05:06:09.194Z,0
2016-02-11T05:07:09.165Z,0
2016-02-11T05:08:09.184Z,0
2016-02-11T05:09:09.155Z,0
2016-02-11T05:10:09.158Z,0
2016-02-11T05:11:09.145Z,0
2016-02-11T05:12:09.164Z,0
2016-02-11T05:13:09.150Z,0
2016-02-11T05:14:09.138Z,0
2016-02-11T05:15:09.155Z,0
2016-02-11T05:16:09.144Z,0
2016-02-11T05:17:09.130Z,0
2016-02-11T05:18:09.117Z,0
2016-02-11T05:19:09.151Z,0
2016-02-11T05:20:09.138Z,0
2016-02-11T05:21:09.093Z,0
2016-02-11T05:22:09.128Z,0
2016-02-11T05:23:09.130Z,0
2016-02-11T05:24:09.118Z,0
2016-02-11T05:25:09.120Z,0
2016-02-11T05:26:09.118Z,0
2016-02-11T05:27:09.104Z,0
2016-02-11T05:28:09.107Z,0
2016-02-11T05:29:09.078Z,0
2016-02-11T05:30:09.097Z,0
2016-02-11T05:31:09.067Z,0
2016-02-11T05:32:09.070Z,0
2016-02-11T05:33:09.090Z,0
2016-02-11T05:34:09.077Z,0
2016-02-11T05:35:09.095Z,0
2016-02-11T05:36:09.052Z,0
2016-02-11T05:37:09.101Z,0
2016-02-11T05:38:09.056Z,0
2016-02-11T05:39:09.090Z,0
2016-02-11T05:40:09.062Z,0
2016-02-11T05:41:09.035Z,0
2016-02-11T05:42:09.022Z,0
2016-02-11T05:43:09.071Z,0
2016-02-11T05:44:09.026Z,0
2016-02-11T05:45:09.029Z,0
2016-02-11T05:46:09.016Z,0
2016-02-11T05:47:09.035Z,0
2016-02-11T05:48:09.021Z,0
2016-02-11T05:49:09.009Z,0
2016-02-11T05:50:09.044Z,0
2016-02-11T05:51:09.000Z,0
2016-02-11T05:52:09.002Z,0
2016-02-11T05:53:08.974Z,0
2016-02-11T05:54:08.997Z,0
2016-02-11T05:55:08.984Z,0
2016-02-11T05:56:09.066Z,0
2016-02-11T05:57:08.990Z,0
2016-02-11T05:58:09.041Z,0
2016-02-11T05:59:08.997Z,0
2016-02-11T06:00:08.969Z,0
2016-02-11T06:01:08.956Z,0
2016-02-11T06:02:08.958Z,0
2016-02-11T06:03:08.977Z,0
2016-02-11T06:04:08.947Z,0
2016-02-11T06:05:08.950Z,0
2016-02-11T06:06:08.938Z,0
2016-02-11T06:07:09.177Z,0
2016-02-11T06:08:08.960Z,0
2016-02-11T06:09:08.916Z,0
2016-02-11T06:10:08.919Z,0
2016-02-11T06:11:08.938Z,0
2016-02-11T06:12:08.881Z,0
2016-02-11T06:13:08.978Z,0
2016-02-11T06:14:08.874Z,0
2016-02-11T06:15:08.848Z,0
2016-02-11T06:16:08.837Z,0
2016-02-11T06:17:08.835Z,0
2016-02-11T06:18:08.802Z,0
2016-02-11T06:19:08.800Z,0
2016-02-11T06:20:08.813Z,5
2016-02-11T06:21:08.779Z,5
2016-02-11T06:22:08.827Z,5
2016-02-11T06:23:08.766Z,5
2016-02-11T06:24:08.766Z,5
2016-02-11T06:25:08.752Z,5
2016-02-11T06:26:08.755Z,5
2016-02-11T06:27:08.741Z,10
2016-02-11T06:28:08.728Z,10
2016-02-11T06:29:08.761Z,10
2016-02-11T06:30:08.731Z,10
2016-02-11T06:31:08.765Z,10
2016-02-11T06:32:08.721Z,10
2016-02-11T06:33:08.723Z,15
2016-02-11T06:34:08.709Z,15
2016-02-11T06:35:08.713Z,15
2016-02-11T06:36:08.702Z,20
2016-02-11T06:37:08.688Z,20
2016-02-11T06:38:08.721Z,20
2016-02-11T06:39:08.677Z,20
2016-02-11T06:40:08.679Z,25
2016-02-11T06:41:08.668Z,25
2016-02-11T06:42:08.670Z,25
2016-02-11T06:43:08.659Z,25
2016-02-11T06:44:08.692Z,25
2016-02-11T06:45:08.649Z,30
2016-02-11T06:46:08.636Z,30
2016-02-11T06:47:08.654Z,35
2016-02-11T06:48:08.657Z,40
2016-02-11T06:49:08.628Z,40
2016-02-11T06:50:08.662Z,40
2016-02-11T06:51:08.634Z,40
2016-02-11T06:52:08.637Z,45
2016-02-11T06:53:08.625Z,45
2016-02-11T06:54:08.618Z,45
2016-02-11T06:55:08.621Z,45
2016-02-11T06:56:08.670Z,45
2016-02-11T06:57:08.625Z,45
2016-02-11T06:58:08.613Z,45
2016-02-11T06:59:08.600Z,45
2016-02-11T07:00:08.417Z,45
2016-02-11T07:01:08.591Z,45
2016-02-11T07:02:08.578Z,50
2016-02-11T07:03:08.581Z,50
2016-02-11T07:04:08.443Z,50
2016-02-11T07:05:08.586Z,55
2016-02-11T07:06:08.558Z,55
2016-02-11T07:07:08.560Z,55
2016-02-11T07:08:08.547Z,55
2016-02-11T07:09:08.567Z,55
2016-02-11T07:10:08.539Z,60
2016-02-11T07:11:08.541Z,65
2016-02-11T07:12:08.528Z,65
2016-02-11T07:13:08.530Z,65
2016-02-11T07:14:08.550Z,65
2016-02-11T07:15:08.552Z,65
2016-02-11T07:16:08.524Z,70
2016-02-11T07:17:08.526Z,70
2016-02-11T07:18:08.513Z,75
2016-02-11T07:19:08.547Z,75
2016-02-11T07:20:08.518Z,75
2016-02-11T07:21:08.505Z,80
2016-02-11T07:22:08.977Z,80
2016-02-11T07:23:08.485Z,80
2016-02-11T07:24:08.535Z,80
2016-02-11T07:25:08.490Z,80
2016-02-11T07:26:08.477Z,80
2016-02-11T07:27:08.496Z,75
2016-02-11T07:28:08.467Z,75
2016-02-11T07:29:08.484Z,75
2016-02-11T07:30:08.473Z,75
2016-02-11T07:31:08.475Z,75
2016-02-11T07:32:08.509Z,75
2016-02-11T07:33:08.465Z,80
2016-02-11T07:34:08.452Z,80
2016-02-11T07:35:08.454Z,85
2016-02-11T07:36:08.473Z,85
2016-02-11T07:37:08.445Z,90
2016-02-11T07:38:08.462Z,90
2016-02-11T07:39:08.434Z,95
2016-02-11T07:40:08.453Z,95
2016-02-11T07:41:08.439Z,95
2016-02-11T07:42:08.442Z,95
2016-02-11T07:43:08.431Z,95
2016-02-11T07:44:08.433Z,100
2016-02-11T07:45:08.420Z,100
2016-02-11T07:46:08.413Z,100
2016-02-11T07:47:08.415Z,100
2016-02-11T07:48:08.434Z,100
2016-02-11T07:49:08.421Z,110
2016-02-11T07:50:08.409Z,110
2016-02-11T07:51:08.395Z,110
2016-02-11T07:52:08.381Z,105
2016-02-11T07:53:08.369Z,110
2016-02-11T07:54:08.388Z,100
2016-02-11T07:55:08.392Z,95
2016-02-11T07:56:08.476Z,85
2016-02-11T07:57:08.403Z,85
2016-02-11T07:58:08.359Z,85
2016-02-11T07:59:08.378Z,85
2016-02-11T08:00:08.395Z,90
2016-02-11T08:01:08.367Z,95
2016-02-11T08:02:08.354Z,100
2016-02-11T08:03:08.343Z,100
2016-02-11T08:04:08.392Z,100
2016-02-11T08:05:08.348Z,100
2016-02-11T08:06:08.334Z,90
2016-02-11T08:07:08.353Z,95
2016-02-11T08:08:08.324Z,95
2016-02-11T08:09:08.328Z,100
2016-02-11T08:10:08.345Z,100
2016-02-11T08:11:08.334Z,110
2016-02-11T08:12:08.305Z,115
2016-02-11T08:13:08.323Z,110
2016-02-11T08:14:08.325Z,115
2016-02-11T08:15:08.328Z,115
2016-02-11T08:16:08.300Z,105
2016-02-11T08:17:08.303Z,100
2016-02-11T08:18:08.305Z,100
2016-02-11T08:19:08.495Z,105
2016-02-11T08:20:08.281Z,110
2016-02-11T08:21:08.267Z,110
2016-02-11T08:22:08.287Z,115
2016-02-11T08:23:08.273Z,115
2016-02-11T08:24:08.259Z,115
2016-02-11T08:25:08.247Z,115
2016-02-11T08:26:08.265Z,115
2016-02-11T08:27:08.271Z,110
2016-02-11T08:28:08.273Z,105
2016-02-11T08:29:08.292Z,105
2016-02-11T08:30:08.264Z,105
2016-02-11T08:31:08.266Z,100
2016-02-11T08:32:08.253Z,100
2016-02-11T08:33:08.225Z,100
2016-02-11T08:34:08.243Z,100
2016-02-11T08:35:08.214Z,100
2016-02-11T08:36:08.217Z,100
2016-02-11T08:37:08.235Z,100
2016-02-11T08:38:08.222Z,100
2016-02-11T08:39:08.242Z,105
2016-02-11T08:40:08.212Z,100
2016-02-11T08:41:08.199Z,100
2016-02-11T08:42:08.217Z,105
2016-02-11T08:43:08.205Z,105
2016-02-11T08:44:08.192Z,105
2016-02-11T08:45:08.226Z,105
2016-02-11T08:46:08.182Z,105
2016-02-11T08:47:08.184Z,105
2016-02-11T08:48:08.187Z,110
2016-02-11T08:49:08.205Z,110
2016-02-11T08:50:08.193Z,110
2016-02-11T08:51:08.211Z,110
2016-02-11T08:52:08.182Z,105
2016-02-11T08:53:08.169Z,110
2016-02-11T08:54:08.157Z,115
2016-02-11T08:55:08.174Z,115
2016-02-11T08:56:08.193Z,120
2016-02-11T08:57:08.134Z,115
2016-02-11T08:58:08.159Z,120
2016-02-11T08:59:09.677Z,110
2016-02-11T09:00:08.524Z,115
2016-02-11T09:01:08.590Z,110
2016-02-11T09:02:08.483Z,115
2016-02-11T09:03:08.627Z,110
2016-02-11T09:04:08.379Z,110
2016-02-11T09:05:08.353Z,110
2016-02-11T09:06:08.480Z,105
2016-02-11T09:07:08.811Z,110
2016-02-11T09:08:08.672Z,110
2016-02-11T09:09:08.394Z,110
2016-02-11T09:10:08.084Z,115
2016-02-11T09:11:08.087Z,115
2016-02-11T09:12:08.074Z,115
2016-02-11T09:13:08.172Z,115
2016-02-11T09:14:08.080Z,115
2016-02-11T09:15:08.099Z,115
2016-02-11T09:16:08.056Z,110
2016-02-11T09:17:08.073Z,110
2016-02-11T09:18:08.076Z,115
2016-02-11T09:19:07.923Z,115
2016-02-11T09:20:08.097Z,115
2016-02-11T09:21:08.760Z,115
2016-02-11T09:22:08.575Z,115
2016-02-11T09:23:08.703Z,120
2016-02-11T09:24:08.690Z,120
2016-02-11T09:25:08.412Z,120
2016-02-11T09:26:08.695Z,120
2016-02-11T09:27:08.980Z,120
2016-02-11T09:28:08.795Z,120
2016-02-11T09:29:08.441Z,125
2016-02-11T09:30:08.615Z,125
2016-02-11T09:31:08.829Z,125
2016-02-11T09:32:08.534Z,125
2016-02-11T09:33:08.522Z,125
2016-02-11T09:34:08.650Z,125
2016-02-11T09:35:08.543Z,125
2016-02-11T09:36:08.484Z,130
2016-02-11T09:37:08.626Z,140
2016-02-11T09:38:08.519Z,135
2016-02-11T09:39:08.679Z,130
2016-02-11T09:40:08.556Z,140
2016-02-11T09:41:08.465Z,155
2016-02-11T09:42:08.515Z,190
2016-02-11T09:43:08.298Z,210
2016-02-11T09:44:08.567Z,210
2016-02-11T09:45:08.351Z,215
2016-02-11T09:46:08.385Z,245
2016-02-11T09:47:08.686Z,250
2016-02-11T09:48:08.596Z,245
2016-02-11T09:49:07.848Z,240
2016-02-11T09:50:08.477Z,245
2016-02-11T09:51:08.745Z,255
2016-02-11T09:52:08.592Z,250
2016-02-11T09:53:08.672Z,255
2016-02-11T09:54:08.675Z,255
2016-02-11T09:55:08.630Z,260
2016-02-11T09:56:08.586Z,275
2016-02-11T09:57:08.730Z,270
2016-02-11T09:58:08.499Z,270
2016-02-11T09:59:08.330Z,275
2016-02-11T10:00:08.441Z,280
2016-02-11T10:01:08.462Z,285
2016-02-11T10:02:08.542Z,280
2016-02-11T10:03:08.576Z,275
2016-02-11T10:04:08.345Z,280
2016-02-11T10:05:08.598Z,275
2016-02-11T10:06:08.475Z,270
2016-02-11T10:07:08.665Z,260
2016-02-11T10:08:08.433Z,255
2016-02-11T10:09:08.374Z,265
2016-02-11T10:10:08.314Z,270
2016-02-11T10:11:08.472Z,275
2016-02-11T10:12:08.382Z,275
2016-02-11T10:13:08.603Z,275
2016-02-11T10:14:08.481Z,265
2016-02-11T10:15:08.468Z,265
2016-02-11T10:16:08.331Z,255
2016-02-11T10:17:08.303Z,245
2016-02-11T10:18:08.727Z,235
2016-02-11T10:19:08.542Z,235
2016-02-11T10:20:08.622Z,230
2016-02-11T10:21:08.454Z,225
2016-02-11T10:22:08.066Z,225
2016-02-11T10:23:08.553Z,230
2016-02-11T10:24:08.837Z,240
2016-02-11T10:25:08.620Z,230
2016-02-11T10:26:08.577Z,230
2016-02-11T10:27:08.423Z,240
2016-02-11T10:28:08.597Z,235
2016-02-11T10:29:08.178Z,235
2016-02-11T10:30:08.416Z,235
2016-02-11T10:31:08.419Z,235
2016-02-11T10:32:08.390Z,235
2016-02-11T10:33:08.520Z,250
2016-02-11T10:34:08.475Z,260
2016-02-11T10:35:08.573Z,250
2016-02-11T10:36:08.467Z,255
2016-02-11T10:37:07.907Z,260
2016-02-11T10:38:08.753Z,255
2016-02-11T10:39:08.272Z,260
2016-02-11T10:40:08.540Z,255
2016-02-11T10:41:08.387Z,255
2016-02-11T10:42:08.468Z,255
2016-02-11T10:43:08.470Z,260
2016-02-11T10:44:08.427Z,275
2016-02-11T10:45:08.445Z,285
2016-02-11T10:46:08.448Z,290
2016-02-11T10:47:08.357Z,300
2016-02-11T10:48:08.453Z,315
2016-02-11T10:49:08.425Z,320
2016-02-11T10:50:08.537Z,320
2016-02-11T10:51:07.868Z,325
2016-02-11T10:52:07.701Z,330
2016-02-11T10:53:07.875Z,330
2016-02-11T10:54:07.895Z,320
2016-02-11T10:55:07.865Z,335
2016-02-11T10:56:07.884Z,335
2016-02-11T10:57:07.481Z,320
2016-02-11T10:58:07.938Z,320
2016-02-11T10:59:08.019Z,315
2016-02-11T11:00:08.006Z,330
2016-02-11T11:01:08.025Z,350
2016-02-11T11:02:07.840Z,360
2016-02-11T11:03:07.924Z,355
2016-02-11T11:04:07.847Z,350
2016-02-11T11:05:07.866Z,350
2016-02-11T11:06:07.838Z,345
2016-02-11T11:07:08.168Z,345
2016-02-11T11:08:07.843Z,335
2016-02-11T11:09:07.955Z,330
2016-02-11T11:10:07.895Z,330
2016-02-11T11:11:08.726Z,325
2016-02-11T11:12:07.416Z,325
2016-02-11T11:13:08.060Z,330
2016-02-11T11:14:08.047Z,325
2016-02-11T11:15:07.846Z,320
2016-02-11T11:16:07.879Z,325
2016-02-11T11:17:07.993Z,330
2016-02-11T11:18:08.027Z,340
2016-02-11T11:19:08.107Z,340
2016-02-11T11:20:07.938Z,340
2016-02-11T11:21:07.941Z,340
2016-02-11T11:22:07.897Z,330
2016-02-11T11:23:08.587Z,325
2016-02-11T11:24:08.121Z,305
2016-02-11T11:25:08.234Z,280
2016-02-11T11:26:08.468Z,270
2016-02-11T11:27:07.954Z,275
2016-02-11T11:28:08.426Z,285
2016-02-11T11:29:08.584Z,295
2016-02-11T11:30:08.025Z,290
2016-02-11T11:31:08.622Z,290
2016-02-11T11:32:08.342Z,300
2016-02-11T11:33:08.190Z,315
2016-02-11T11:34:07.895Z,320
2016-02-11T11:35:07.894Z,330
2016-02-11T11:36:08.336Z,320
2016-02-11T11:37:07.869Z,320
2016-02-11T11:38:08.684Z,330
2016-02-11T11:39:08.000Z,335
2016-02-11T11:40:07.893Z,340
2016-02-11T11:41:08.177Z,325
2016-02-11T11:42:08.335Z,305
2016-02-11T11:43:08.105Z,300
2016-02-11T11:44:08.107Z,325
2016-02-11T11:45:07.955Z,315
2016-02-11T11:46:08.160Z,315
2016-02-11T11:47:08.069Z,310
2016-02-11T11:48:07.884Z,305
2016-02-11T11:49:07.871Z,295
2016-02-11T11:50:07.936Z,290
2016-02-11T11:51:08.215Z,275
2016-02-11T11:52:08.031Z,295
2016-02-11T11:53:08.174Z,295
2016-02-11T11:54:07.744Z,310
2016-02-11T11:55:07.887Z,330
2016-02-11T11:56:07.905Z,330
2016-02-11T11:57:07.702Z,320
2016-02-11T11:58:07.715Z,300
2016-02-11T11:59:07.988Z,285
2016-02-11T12:00:36.840Z,260
2016-02-11T12:01:07.889Z,245
2016-02-11T12:02:08.142Z,205
2016-02-11T12:03:08.208Z,170
2016-02-11T12:04:08.492Z,160
2016-02-11T12:05:08.494Z,155
2016-02-11T12:06:08.419Z,180
2016-02-11T12:07:08.452Z,200
2016-02-11T12:08:08.502Z,240
2016-02-11T12:09:08.442Z,250
2016-02-11T12:10:08.414Z,255
2016-02-11T12:11:08.511Z,250
2016-02-11T12:12:08.372Z,275
2016-02-11T12:13:08.485Z,300
2016-02-11T12:14:08.409Z,305
2016-02-11T12:15:08.583Z,275
2016-02-11T12:16:07.665Z,220
2016-02-11T12:17:08.527Z,180
2016-02-11T12:18:08.280Z,165
2016-02-11T12:19:08.126Z,135
2016-02-11T12:20:08.207Z,120
2016-02-11T12:21:08.631Z,105
2016-02-11T12:22:08.415Z,125
2016-02-11T12:23:08.200Z,150
2016-02-11T12:24:08.360Z,180
2016-02-11T12:25:08.362Z,195
2016-02-11T12:26:08.318Z,180
2016-02-11T12:27:07.320Z,160
2016-02-11T12:28:07.888Z,160
2016-02-11T12:29:07.908Z,185
2016-02-11T12:30:07.864Z,245
2016-02-11T12:31:07.881Z,280
2016-02-11T12:32:07.890Z,280
2016-02-11T12:33:07.893Z,280
2016-02-11T12:34:07.881Z,315
2016-02-11T12:35:07.867Z,355
2016-02-11T12:36:07.886Z,355
2016-02-11T12:37:07.905Z,355
2016-02-11T12:38:07.877Z,335
2016-02-11T12:39:07.880Z,325
2016-02-11T12:40:07.883Z,315
2016-02-11T12:41:08.166Z,280
2016-02-11T12:42:07.872Z,235
2016-02-11T12:43:07.875Z,205
2016-02-11T12:44:07.893Z,210
2016-02-11T12:45:07.896Z,235
2016-02-11T12:46:07.868Z,260
2016-02-11T12:47:07.871Z,285
2016-02-11T12:48:07.936Z,305
2016-02-11T12:49:08.189Z,335
2016-02-11T12:50:07.895Z,325
2016-02-11T12:51:07.882Z,315
2016-02-11T12:52:07.885Z,300
2016-02-11T12:53:07.871Z,265
2016-02-11T12:54:07.875Z,250
2016-02-11T12:55:07.893Z,235
2016-02-11T12:56:07.896Z,240
2016-02-11T12:57:07.852Z,265
2016-02-11T12:58:07.885Z,285
2016-02-11T12:59:07.888Z,280
2016-02-11T13:00:07.892Z,265
2016-02-11T13:01:07.878Z,240
2016-02-11T13:02:07.871Z,225
2016-02-11T13:03:07.874Z,230
2016-02-11T13:04:07.877Z,240
2016-02-11T13:05:07.910Z,260
2016-02-11T13:06:07.898Z,285
2016-02-11T13:07:07.885Z,300
2016-02-11T13:08:07.902Z,325
2016-02-11T13:09:07.890Z,350
2016-02-11T13:10:07.893Z,370
2016-02-11T13:11:07.882Z,370
2016-02-11T13:12:07.885Z,380
2016-02-11T13:13:07.903Z,365
2016-02-11T13:14:07.891Z,370
2016-02-11T13:15:07.893Z,345
2016-02-11T13:16:07.896Z,285
2016-02-11T13:17:07.883Z,215
2016-02-11T13:18:07.901Z,165
2016-02-11T13:19:07.435Z,155
2016-02-11T13:20:07.892Z,130
2016-02-11T13:21:08.222Z,100
2016-02-11T13:22:07.897Z,80
2016-02-11T13:23:07.886Z,70
2016-02-11T13:24:07.889Z,60
2016-02-11T13:25:07.970Z,50
2016-02-11T13:27:07.911Z,15
2016-02-11T13:28:07.883Z,20
2016-02-11T13:29:07.886Z,20
2016-02-11T13:30:07.920Z,25
2016-02-11T13:31:08.094Z,25
2016-02-11T13:32:07.925Z,20
2016-02-11T13:33:07.914Z,15
2016-02-11T13:34:07.964Z,15
2016-02-11T13:35:07.904Z,15
2016-02-11T13:36:07.922Z,15
2016-02-11T13:37:07.894Z,10
2016-02-11T13:38:07.927Z,10
2016-02-11T13:39:07.916Z,10
2016-02-11T13:40:07.903Z,10
2016-02-11T13:41:07.890Z,10
2016-02-11T13:42:07.144Z,15
2016-02-11T13:43:07.879Z,20
2016-02-11T13:44:07.898Z,25
2016-02-11T13:45:07.885Z,35
2016-02-11T13:46:07.872Z,60
2016-02-11T13:47:07.875Z,85
2016-02-11T13:48:07.878Z,100
2016-02-11T13:49:07.881Z,125
2016-02-11T13:50:07.884Z,180
2016-02-11T13:51:07.871Z,210
2016-02-11T13:52:07.858Z,230
2016-02-11T13:53:07.877Z,215
2016-02-11T13:54:07.863Z,190
2016-02-11T13:55:07.835Z,160
2016-02-11T13:56:07.868Z,140
2016-02-11T13:57:07.842Z,135
2016-02-11T13:58:07.859Z,130
2016-02-11T13:59:07.846Z,130
2016-02-11T14:00:07.833Z,130
2016-02-11T14:01:07.883Z,125
2016-02-11T14:02:07.824Z,125
2016-02-11T14:03:07.827Z,120
2016-02-11T14:04:07.837Z,125
2016-02-11T14:05:07.845Z,110
2016-02-11T14:06:07.660Z,120
2016-02-11T14:07:07.835Z,110
2016-02-11T14:08:07.793Z,105
2016-02-11T14:09:07.811Z,95
2016-02-11T14:10:07.799Z,95
2016-02-11T14:11:07.801Z,95
2016-02-11T14:12:07.804Z,95
2016-02-11T14:13:07.791Z,95
2016-02-11T14:14:07.841Z,100
2016-02-11T14:15:07.780Z,110
2016-02-11T14:16:07.800Z,115
2016-02-11T14:17:07.802Z,125